sensor_id;sensor_type;location;lat;lon;timestamp;P1;durP1;ratioP1;P2;durP2;ratioP2
2602;SDS011;1311;47.966;7.958;2023-06-10T00:00:02;8.00;;;7.30;;
2602;SDS011;1311;47.966;7.958;2023-06-10T00:02:30;7.80;;;7.10;;
2602;SDS011;1311;47.966;7.958;2023-06-10T00:04:57;7.13;;;6.43;;
2602;SDS011;1311;47.966;7.958;2023-06-10T00:07:25;7.73;;;7.03;;
2602;SDS011;1311;47.966;7.958;2023-06-10T00:09:52;7.80;;;7.20;;
2602;SDS011;1311;47.966;7.958;2023-06-10T00:12:20;7.03;;;6.43;;
2602;SDS011;1311;47.966;7.958;2023-06-10T00:14:47;7.30;;;6.60;;
2602;SDS011;1311;47.966;7.958;2023-06-10T00:17:15;8.10;;;6.87;;
2602;SDS011;1311;47.966;7.958;2023-06-10T00:19:41;7.10;;;6.50;;
2602;SDS011;1311;47.966;7.958;2023-06-10T00:22:08;6.43;;;5.83;;
2602;SDS011;1311;47.966;7.958;2023-06-10T00:24:37;7.10;;;6.50;;
2602;SDS011;1311;47.966;7.958;2023-06-10T00:27:04;6.97;;;6.37;;
2602;SDS011;1311;47.966;7.958;2023-06-10T00:29:31;6.20;;;5.70;;
2602;SDS011;1311;47.966;7.958;2023-06-10T00:31:58;6.00;;;5.40;;
2602;SDS011;1311;47.966;7.958;2023-06-10T00:34:25;6.73;;;6.13;;
2602;SDS011;1311;47.966;7.958;2023-06-10T00:36:52;6.37;;;5.87;;
2602;SDS011;1311;47.966;7.958;2023-06-10T00:39:18;7.27;;;6.67;;
2602;SDS011;1311;47.966;7.958;2023-06-10T00:41:46;7.63;;;6.77;;
2602;SDS011;1311;47.966;7.958;2023-06-10T00:44:13;6.97;;;6.30;;
2602;SDS011;1311;47.966;7.958;2023-06-10T00:46:40;6.50;;;5.90;;
2602;SDS011;1311;47.966;7.958;2023-06-10T00:49:07;7.53;;;6.83;;
2602;SDS011;1311;47.966;7.958;2023-06-10T00:51:34;9.40;;;7.20;;
2602;SDS011;1311;47.966;7.958;2023-06-10T00:54:01;9.23;;;6.80;;
2602;SDS011;1311;47.966;7.958;2023-06-10T00:56:28;6.67;;;6.07;;
2602;SDS011;1311;47.966;7.958;2023-06-10T00:58:56;5.80;;;5.30;;
2602;SDS011;1311;47.966;7.958;2023-06-10T01:01:23;7.73;;;7.03;;
2602;SDS011;1311;47.966;7.958;2023-06-10T01:03:50;7.80;;;7.10;;
2602;SDS011;1311;47.966;7.958;2023-06-10T01:06:19;6.63;;;6.03;;
2602;SDS011;1311;47.966;7.958;2023-06-10T01:08:55;7.87;;;7.17;;
2602;SDS011;1311;47.966;7.958;2023-06-10T01:14:11;6.80;;;6.20;;
2602;SDS011;1311;47.966;7.958;2023-06-10T01:16:39;7.73;;;7.03;;
2602;SDS011;1311;47.966;7.958;2023-06-10T01:19:06;7.57;;;6.83;;
2602;SDS011;1311;47.966;7.958;2023-06-10T01:21:34;7.17;;;6.53;;
2602;SDS011;1311;47.966;7.958;2023-06-10T01:24:04;7.30;;;6.60;;
2602;SDS011;1311;47.966;7.958;2023-06-10T01:26:33;7.17;;;6.47;;
2602;SDS011;1311;47.966;7.958;2023-06-10T01:29:03;7.83;;;7.03;;
2602;SDS011;1311;47.966;7.958;2023-06-10T01:31:38;7.13;;;6.53;;
2602;SDS011;1311;47.966;7.958;2023-06-10T01:34:12;8.43;;;7.63;;
2602;SDS011;1311;47.966;7.958;2023-06-10T01:36:44;7.50;;;6.80;;
2602;SDS011;1311;47.966;7.958;2023-06-10T01:39:14;7.07;;;6.47;;
2602;SDS011;1311;47.966;7.958;2023-06-10T01:41:41;8.03;;;7.33;;
2602;SDS011;1311;47.966;7.958;2023-06-10T01:44:08;8.00;;;7.20;;
2602;SDS011;1311;47.966;7.958;2023-06-10T01:46:35;7.93;;;7.23;;
2602;SDS011;1311;47.966;7.958;2023-06-10T01:49:02;7.77;;;7.07;;
2602;SDS011;1311;47.966;7.958;2023-06-10T01:51:28;8.03;;;7.13;;
2602;SDS011;1311;47.966;7.958;2023-06-10T01:53:58;7.10;;;6.50;;
2602;SDS011;1311;47.966;7.958;2023-06-10T01:56:24;7.47;;;6.77;;
2602;SDS011;1311;47.966;7.958;2023-06-10T01:58:51;7.20;;;6.50;;
2602;SDS011;1311;47.966;7.958;2023-06-10T02:01:20;6.60;;;6.00;;
2602;SDS011;1311;47.966;7.958;2023-06-10T02:03:46;8.40;;;7.13;;
2602;SDS011;1311;47.966;7.958;2023-06-10T02:06:13;6.67;;;6.00;;
2602;SDS011;1311;47.966;7.958;2023-06-10T02:08:40;8.90;;;8.00;;
2602;SDS011;1311;47.966;7.958;2023-06-10T02:11:08;7.33;;;6.67;;
2602;SDS011;1311;47.966;7.958;2023-06-10T02:13:35;8.10;;;7.30;;
2602;SDS011;1311;47.966;7.958;2023-06-10T02:16:01;8.23;;;7.43;;
2602;SDS011;1311;47.966;7.958;2023-06-10T02:18:28;8.10;;;7.40;;
2602;SDS011;1311;47.966;7.958;2023-06-10T02:20:55;9.53;;;8.10;;
2602;SDS011;1311;47.966;7.958;2023-06-10T02:23:22;8.00;;;7.30;;
2602;SDS011;1311;47.966;7.958;2023-06-10T02:25:48;8.03;;;7.23;;
2602;SDS011;1311;47.966;7.958;2023-06-10T02:28:17;7.80;;;7.10;;
2602;SDS011;1311;47.966;7.958;2023-06-10T02:30:43;9.00;;;8.00;;
2602;SDS011;1311;47.966;7.958;2023-06-10T02:33:11;8.43;;;7.73;;
2602;SDS011;1311;47.966;7.958;2023-06-10T02:35:39;8.70;;;7.80;;
2602;SDS011;1311;47.966;7.958;2023-06-10T02:38:05;9.17;;;8.27;;
2602;SDS011;1311;47.966;7.958;2023-06-10T02:40:32;7.67;;;6.97;;
2602;SDS011;1311;47.966;7.958;2023-06-10T02:42:59;8.90;;;8.00;;
2602;SDS011;1311;47.966;7.958;2023-06-10T02:45:27;8.10;;;7.40;;
2602;SDS011;1311;47.966;7.958;2023-06-10T02:47:54;8.10;;;7.07;;
2602;SDS011;1311;47.966;7.958;2023-06-10T02:50:21;7.73;;;6.93;;
2602;SDS011;1311;47.966;7.958;2023-06-10T02:52:48;8.40;;;7.60;;
2602;SDS011;1311;47.966;7.958;2023-06-10T02:55:14;8.70;;;7.90;;
2602;SDS011;1311;47.966;7.958;2023-06-10T02:57:41;9.13;;;7.77;;
2602;SDS011;1311;47.966;7.958;2023-06-10T03:00:08;9.60;;;8.70;;
2602;SDS011;1311;47.966;7.958;2023-06-10T03:02:37;10.20;;;9.30;;
2602;SDS011;1311;47.966;7.958;2023-06-10T03:05:04;9.23;;;8.33;;
2602;SDS011;1311;47.966;7.958;2023-06-10T03:07:34;8.80;;;8.03;;
2602;SDS011;1311;47.966;7.958;2023-06-10T03:10:01;9.43;;;8.50;;
2602;SDS011;1311;47.966;7.958;2023-06-10T03:12:28;8.60;;;7.90;;
2602;SDS011;1311;47.966;7.958;2023-06-10T03:14:55;8.67;;;7.83;;
2602;SDS011;1311;47.966;7.958;2023-06-10T03:17:22;9.47;;;8.50;;
2602;SDS011;1311;47.966;7.958;2023-06-10T03:19:50;8.83;;;7.93;;
2602;SDS011;1311;47.966;7.958;2023-06-10T03:22:17;8.00;;;7.30;;
2602;SDS011;1311;47.966;7.958;2023-06-10T03:24:43;8.37;;;7.13;;
2602;SDS011;1311;47.966;7.958;2023-06-10T03:27:11;7.30;;;6.60;;
2602;SDS011;1311;47.966;7.958;2023-06-10T03:29:40;8.30;;;7.50;;
2602;SDS011;1311;47.966;7.958;2023-06-10T03:32:07;8.53;;;7.73;;
2602;SDS011;1311;47.966;7.958;2023-06-10T03:34:33;10.43;;;7.90;;
2602;SDS011;1311;47.966;7.958;2023-06-10T03:37:02;10.57;;;7.60;;
2602;SDS011;1311;47.966;7.958;2023-06-10T03:39:29;8.23;;;7.47;;
2602;SDS011;1311;47.966;7.958;2023-06-10T03:41:55;7.07;;;6.40;;
2602;SDS011;1311;47.966;7.958;2023-06-10T03:44:23;8.70;;;7.20;;
2602;SDS011;1311;47.966;7.958;2023-06-10T03:46:51;9.03;;;8.20;;
2602;SDS011;1311;47.966;7.958;2023-06-10T03:49:18;8.60;;;7.90;;
2602;SDS011;1311;47.966;7.958;2023-06-10T03:51:45;8.40;;;7.70;;
2602;SDS011;1311;47.966;7.958;2023-06-10T03:54:13;8.57;;;7.70;;
2602;SDS011;1311;47.966;7.958;2023-06-10T03:56:40;9.60;;;8.60;;
2602;SDS011;1311;47.966;7.958;2023-06-10T03:59:06;8.37;;;7.57;;
2602;SDS011;1311;47.966;7.958;2023-06-10T04:01:33;7.80;;;7.10;;
2602;SDS011;1311;47.966;7.958;2023-06-10T04:04:02;8.73;;;7.93;;
2602;SDS011;1311;47.966;7.958;2023-06-10T04:06:29;8.67;;;7.87;;
2602;SDS011;1311;47.966;7.958;2023-06-10T04:08:56;8.20;;;7.40;;
2602;SDS011;1311;47.966;7.958;2023-06-10T04:11:24;9.00;;;8.10;;
2602;SDS011;1311;47.966;7.958;2023-06-10T04:13:51;7.40;;;6.80;;
2602;SDS011;1311;47.966;7.958;2023-06-10T04:16:18;7.83;;;7.03;;
2602;SDS011;1311;47.966;7.958;2023-06-10T04:18:46;8.30;;;7.00;;
2602;SDS011;1311;47.966;7.958;2023-06-10T04:21:12;8.27;;;7.47;;
2602;SDS011;1311;47.966;7.958;2023-06-10T04:23:39;11.27;;;8.00;;
2602;SDS011;1311;47.966;7.958;2023-06-10T04:26:06;8.77;;;8.07;;
2602;SDS011;1311;47.966;7.958;2023-06-10T04:28:34;9.30;;;8.40;;
2602;SDS011;1311;47.966;7.958;2023-06-10T04:31:01;10.00;;;9.00;;
2602;SDS011;1311;47.966;7.958;2023-06-10T04:33:29;7.40;;;6.80;;
2602;SDS011;1311;47.966;7.958;2023-06-10T04:35:55;8.10;;;7.40;;
2602;SDS011;1311;47.966;7.958;2023-06-10T04:38:22;8.43;;;7.63;;
2602;SDS011;1311;47.966;7.958;2023-06-10T04:40:49;7.63;;;7.03;;
2602;SDS011;1311;47.966;7.958;2023-06-10T04:43:16;8.17;;;7.57;;
2602;SDS011;1311;47.966;7.958;2023-06-10T04:45:44;8.67;;;7.97;;
2602;SDS011;1311;47.966;7.958;2023-06-10T04:48:12;8.50;;;7.80;;
2602;SDS011;1311;47.966;7.958;2023-06-10T04:50:39;7.77;;;7.17;;
2602;SDS011;1311;47.966;7.958;2023-06-10T04:53:05;8.00;;;7.40;;
2602;SDS011;1311;47.966;7.958;2023-06-10T04:55:32;9.10;;;8.30;;
2602;SDS011;1311;47.966;7.958;2023-06-10T04:57:59;8.30;;;7.50;;
2602;SDS011;1311;47.966;7.958;2023-06-10T05:00:26;8.80;;;8.20;;
2602;SDS011;1311;47.966;7.958;2023-06-10T05:02:54;9.17;;;8.37;;
2602;SDS011;1311;47.966;7.958;2023-06-10T05:05:21;9.70;;;8.90;;
2602;SDS011;1311;47.966;7.958;2023-06-10T05:07:48;10.23;;;9.23;;
2602;SDS011;1311;47.966;7.958;2023-06-10T05:10:14;12.50;;;11.40;;
2602;SDS011;1311;47.966;7.958;2023-06-10T05:12:41;11.20;;;10.30;;
2602;SDS011;1311;47.966;7.958;2023-06-10T05:15:09;12.00;;;11.00;;
2602;SDS011;1311;47.966;7.958;2023-06-10T05:17:36;12.30;;;11.20;;
2602;SDS011;1311;47.966;7.958;2023-06-10T05:20:05;11.83;;;10.83;;
2602;SDS011;1311;47.966;7.958;2023-06-10T05:22:33;11.53;;;10.60;;
2602;SDS011;1311;47.966;7.958;2023-06-10T05:25:00;10.80;;;9.90;;
2602;SDS011;1311;47.966;7.958;2023-06-10T05:27:27;11.20;;;10.27;;
2602;SDS011;1311;47.966;7.958;2023-06-10T05:29:54;10.53;;;9.53;;
2602;SDS011;1311;47.966;7.958;2023-06-10T05:32:21;10.77;;;9.87;;
2602;SDS011;1311;47.966;7.958;2023-06-10T05:34:48;11.50;;;10.60;;
2602;SDS011;1311;47.966;7.958;2023-06-10T05:37:16;10.67;;;9.77;;
2602;SDS011;1311;47.966;7.958;2023-06-10T05:39:43;10.00;;;9.20;;
2602;SDS011;1311;47.966;7.958;2023-06-10T05:42:09;10.17;;;9.37;;
2602;SDS011;1311;47.966;7.958;2023-06-10T05:44:36;8.97;;;8.27;;
2602;SDS011;1311;47.966;7.958;2023-06-10T05:47:03;9.53;;;8.70;;
2602;SDS011;1311;47.966;7.958;2023-06-10T05:49:30;9.63;;;8.87;;
2602;SDS011;1311;47.966;7.958;2023-06-10T05:51:57;8.83;;;8.13;;
2602;SDS011;1311;47.966;7.958;2023-06-10T05:54:25;7.50;;;7.00;;
2602;SDS011;1311;47.966;7.958;2023-06-10T05:56:52;7.77;;;7.17;;
2602;SDS011;1311;47.966;7.958;2023-06-10T05:59:19;8.40;;;7.60;;
2602;SDS011;1311;47.966;7.958;2023-06-10T06:01:47;7.87;;;7.27;;
2602;SDS011;1311;47.966;7.958;2023-06-10T06:04:14;7.40;;;6.80;;
2602;SDS011;1311;47.966;7.958;2023-06-10T06:06:41;6.80;;;6.40;;
2602;SDS011;1311;47.966;7.958;2023-06-10T06:09:08;7.30;;;6.70;;
2602;SDS011;1311;47.966;7.958;2023-06-10T06:11:36;6.97;;;6.47;;
2602;SDS011;1311;47.966;7.958;2023-06-10T06:14:02;7.83;;;7.23;;
2602;SDS011;1311;47.966;7.958;2023-06-10T06:16:29;6.50;;;6.00;;
2602;SDS011;1311;47.966;7.958;2023-06-10T06:18:56;7.00;;;6.50;;
2602;SDS011;1311;47.966;7.958;2023-06-10T06:21:23;7.00;;;6.50;;
2602;SDS011;1311;47.966;7.958;2023-06-10T06:23:50;7.20;;;6.63;;
2602;SDS011;1311;47.966;7.958;2023-06-10T06:26:17;8.20;;;7.60;;
2602;SDS011;1311;47.966;7.958;2023-06-10T06:28:45;8.50;;;7.80;;
2602;SDS011;1311;47.966;7.958;2023-06-10T06:31:11;8.50;;;7.77;;
2602;SDS011;1311;47.966;7.958;2023-06-10T06:33:38;8.27;;;7.67;;
2602;SDS011;1311;47.966;7.958;2023-06-10T06:36:05;7.30;;;6.70;;
2602;SDS011;1311;47.966;7.958;2023-06-10T06:38:32;7.83;;;7.23;;
2602;SDS011;1311;47.966;7.958;2023-06-10T06:40:58;7.27;;;6.77;;
2602;SDS011;1311;47.966;7.958;2023-06-10T06:43:28;7.90;;;7.10;;
2602;SDS011;1311;47.966;7.958;2023-06-10T06:45:56;8.70;;;8.00;;
2602;SDS011;1311;47.966;7.958;2023-06-10T06:48:23;8.70;;;8.00;;
2602;SDS011;1311;47.966;7.958;2023-06-10T06:50:50;8.00;;;7.40;;
2602;SDS011;1311;47.966;7.958;2023-06-10T06:53:17;10.13;;;9.13;;
2602;SDS011;1311;47.966;7.958;2023-06-10T06:55:44;9.50;;;8.70;;
2602;SDS011;1311;47.966;7.958;2023-06-10T06:58:10;8.37;;;7.77;;
2602;SDS011;1311;47.966;7.958;2023-06-10T07:00:37;7.63;;;7.03;;
2602;SDS011;1311;47.966;7.958;2023-06-10T07:03:05;8.37;;;6.83;;
2602;SDS011;1311;47.966;7.958;2023-06-10T07:05:32;7.53;;;6.97;;
2602;SDS011;1311;47.966;7.958;2023-06-10T07:07:58;8.23;;;7.50;;
2602;SDS011;1311;47.966;7.958;2023-06-10T07:10:25;8.50;;;7.70;;
2602;SDS011;1311;47.966;7.958;2023-06-10T07:12:52;7.80;;;7.10;;
2602;SDS011;1311;47.966;7.958;2023-06-10T07:15:19;8.43;;;7.73;;
2602;SDS011;1311;47.966;7.958;2023-06-10T07:17:46;8.53;;;7.80;;
2602;SDS011;1311;47.966;7.958;2023-06-10T07:20:14;7.93;;;7.33;;
2602;SDS011;1311;47.966;7.958;2023-06-10T07:22:41;7.50;;;6.90;;
2602;SDS011;1311;47.966;7.958;2023-06-10T07:25:08;7.43;;;6.83;;
2602;SDS011;1311;47.966;7.958;2023-06-10T07:27:35;8.00;;;7.30;;
2602;SDS011;1311;47.966;7.958;2023-06-10T07:30:03;8.73;;;8.03;;
2602;SDS011;1311;47.966;7.958;2023-06-10T07:32:31;8.73;;;7.60;;
2602;SDS011;1311;47.966;7.958;2023-06-10T07:34:58;8.23;;;7.60;;
2602;SDS011;1311;47.966;7.958;2023-06-10T07:37:26;8.90;;;8.17;;
2602;SDS011;1311;47.966;7.958;2023-06-10T07:39:53;8.10;;;7.40;;
2602;SDS011;1311;47.966;7.958;2023-06-10T07:42:20;8.30;;;7.60;;
2602;SDS011;1311;47.966;7.958;2023-06-10T07:44:46;9.60;;;8.80;;
2602;SDS011;1311;47.966;7.958;2023-06-10T07:47:13;8.00;;;7.37;;
2602;SDS011;1311;47.966;7.958;2023-06-10T07:49:40;8.63;;;7.83;;
2602;SDS011;1311;47.966;7.958;2023-06-10T07:52:07;8.10;;;7.50;;
2602;SDS011;1311;47.966;7.958;2023-06-10T07:54:35;9.67;;;8.70;;
2602;SDS011;1311;47.966;7.958;2023-06-10T07:57:02;8.17;;;7.57;;
2602;SDS011;1311;47.966;7.958;2023-06-10T07:59:29;8.10;;;7.47;;
2602;SDS011;1311;47.966;7.958;2023-06-10T08:01:56;9.50;;;8.60;;
2602;SDS011;1311;47.966;7.958;2023-06-10T08:04:23;7.50;;;6.90;;
2602;SDS011;1311;47.966;7.958;2023-06-10T08:06:49;8.80;;;8.13;;
2602;SDS011;1311;47.966;7.958;2023-06-10T08:09:16;9.30;;;8.50;;
2602;SDS011;1311;47.966;7.958;2023-06-10T08:11:45;7.90;;;7.30;;
2602;SDS011;1311;47.966;7.958;2023-06-10T08:14:12;8.23;;;7.60;;
2602;SDS011;1311;47.966;7.958;2023-06-10T08:16:39;9.43;;;8.63;;
2602;SDS011;1311;47.966;7.958;2023-06-10T08:19:06;8.43;;;7.10;;
2602;SDS011;1311;47.966;7.958;2023-06-10T08:21:34;8.30;;;7.60;;
2602;SDS011;1311;47.966;7.958;2023-06-10T08:24:01;7.80;;;7.10;;
2602;SDS011;1311;47.966;7.958;2023-06-10T08:26:28;8.77;;;7.97;;
2602;SDS011;1311;47.966;7.958;2023-06-10T08:28:56;8.57;;;7.87;;
2602;SDS011;1311;47.966;7.958;2023-06-10T08:31:23;8.00;;;7.20;;
2602;SDS011;1311;47.966;7.958;2023-06-10T08:33:50;7.90;;;7.20;;
2602;SDS011;1311;47.966;7.958;2023-06-10T08:36:16;8.27;;;7.57;;
2602;SDS011;1311;47.966;7.958;2023-06-10T08:38:43;8.50;;;7.70;;
2602;SDS011;1311;47.966;7.958;2023-06-10T08:41:10;7.73;;;7.10;;
2602;SDS011;1311;47.966;7.958;2023-06-10T08:43:42;7.57;;;6.97;;
2602;SDS011;1311;47.966;7.958;2023-06-10T08:46:11;7.87;;;7.27;;
2602;SDS011;1311;47.966;7.958;2023-06-10T08:48:41;8.10;;;7.03;;
2602;SDS011;1311;47.966;7.958;2023-06-10T08:51:09;8.00;;;7.30;;
2602;SDS011;1311;47.966;7.958;2023-06-10T08:53:37;8.80;;;7.40;;
2602;SDS011;1311;47.966;7.958;2023-06-10T08:56:09;8.07;;;7.37;;
2602;SDS011;1311;47.966;7.958;2023-06-10T08:58:37;8.30;;;7.60;;
2602;SDS011;1311;47.966;7.958;2023-06-10T09:01:06;8.10;;;7.40;;
2602;SDS011;1311;47.966;7.958;2023-06-10T09:03:35;8.03;;;7.33;;
2602;SDS011;1311;47.966;7.958;2023-06-10T09:06:04;8.27;;;7.53;;
2602;SDS011;1311;47.966;7.958;2023-06-10T09:08:33;8.63;;;7.70;;
2602;SDS011;1311;47.966;7.958;2023-06-10T09:11:00;8.87;;;8.17;;
2602;SDS011;1311;47.966;7.958;2023-06-10T09:13:27;10.50;;;8.30;;
2602;SDS011;1311;47.966;7.958;2023-06-10T09:15:53;8.70;;;8.00;;
2602;SDS011;1311;47.966;7.958;2023-06-10T09:18:21;8.50;;;7.80;;
2602;SDS011;1311;47.966;7.958;2023-06-10T09:20:49;7.30;;;6.70;;
2602;SDS011;1311;47.966;7.958;2023-06-10T09:23:16;8.00;;;7.37;;
2602;SDS011;1311;47.966;7.958;2023-06-10T09:25:43;9.10;;;8.40;;
2602;SDS011;1311;47.966;7.958;2023-06-10T09:28:12;8.60;;;7.70;;
2602;SDS011;1311;47.966;7.958;2023-06-10T09:30:40;8.17;;;7.57;;
2602;SDS011;1311;47.966;7.958;2023-06-10T09:33:09;9.00;;;8.10;;
2602;SDS011;1311;47.966;7.958;2023-06-10T09:35:37;8.57;;;7.87;;
2602;SDS011;1311;47.966;7.958;2023-06-10T09:38:13;8.40;;;7.60;;
2602;SDS011;1311;47.966;7.958;2023-06-10T09:40:48;9.40;;;8.60;;
2602;SDS011;1311;47.966;7.958;2023-06-10T09:43:15;9.00;;;8.20;;
2602;SDS011;1311;47.966;7.958;2023-06-10T09:45:42;8.47;;;7.77;;
2602;SDS011;1311;47.966;7.958;2023-06-10T09:48:09;8.60;;;7.90;;
2602;SDS011;1311;47.966;7.958;2023-06-10T09:50:41;9.03;;;8.23;;
2602;SDS011;1311;47.966;7.958;2023-06-10T09:53:09;8.90;;;8.20;;
2602;SDS011;1311;47.966;7.958;2023-06-10T09:55:38;8.63;;;7.73;;
2602;SDS011;1311;47.966;7.958;2023-06-10T09:58:05;9.40;;;8.50;;
2602;SDS011;1311;47.966;7.958;2023-06-10T10:00:32;9.00;;;8.30;;
2602;SDS011;1311;47.966;7.958;2023-06-10T10:03:00;8.97;;;8.30;;
2602;SDS011;1311;47.966;7.958;2023-06-10T10:05:28;8.90;;;8.20;;
2602;SDS011;1311;47.966;7.958;2023-06-10T10:07:55;10.90;;;8.03;;
2602;SDS011;1311;47.966;7.958;2023-06-10T10:10:22;9.23;;;8.53;;
2602;SDS011;1311;47.966;7.958;2023-06-10T10:12:52;8.33;;;7.70;;
2602;SDS011;1311;47.966;7.958;2023-06-10T10:15:22;9.43;;;8.70;;
2602;SDS011;1311;47.966;7.958;2023-06-10T10:17:52;9.50;;;8.80;;
2602;SDS011;1311;47.966;7.958;2023-06-10T10:20:22;9.93;;;9.17;;
2602;SDS011;1311;47.966;7.958;2023-06-10T10:22:53;9.70;;;8.73;;
2602;SDS011;1311;47.966;7.958;2023-06-10T10:25:24;8.97;;;8.17;;
2602;SDS011;1311;47.966;7.958;2023-06-10T10:27:56;8.57;;;7.87;;
2602;SDS011;1311;47.966;7.958;2023-06-10T10:30:25;9.97;;;9.10;;
2602;SDS011;1311;47.966;7.958;2023-06-10T10:32:57;9.60;;;8.80;;
2602;SDS011;1311;47.966;7.958;2023-06-10T10:35:26;9.63;;;8.83;;
2602;SDS011;1311;47.966;7.958;2023-06-10T10:37:54;9.40;;;8.60;;
2602;SDS011;1311;47.966;7.958;2023-06-10T10:40:21;8.40;;;7.80;;
2602;SDS011;1311;47.966;7.958;2023-06-10T10:42:48;11.93;;;8.50;;
2602;SDS011;1311;47.966;7.958;2023-06-10T10:45:17;11.53;;;8.30;;
2602;SDS011;1311;47.966;7.958;2023-06-10T10:47:45;9.27;;;8.57;;
2602;SDS011;1311;47.966;7.958;2023-06-10T10:50:13;10.27;;;9.43;;
2602;SDS011;1311;47.966;7.958;2023-06-10T10:52:46;8.73;;;8.10;;
2602;SDS011;1311;47.966;7.958;2023-06-10T10:55:17;10.07;;;9.13;;
2602;SDS011;1311;47.966;7.958;2023-06-10T10:57:44;10.80;;;9.90;;
2602;SDS011;1311;47.966;7.958;2023-06-10T11:00:11;10.30;;;9.40;;
2602;SDS011;1311;47.966;7.958;2023-06-10T11:02:41;9.63;;;8.67;;
2602;SDS011;1311;47.966;7.958;2023-06-10T11:05:11;10.60;;;9.70;;
2602;SDS011;1311;47.966;7.958;2023-06-10T11:07:40;9.20;;;8.50;;
2602;SDS011;1311;47.966;7.958;2023-06-10T11:10:17;9.93;;;9.00;;
2602;SDS011;1311;47.966;7.958;2023-06-10T11:12:54;10.03;;;9.23;;
2602;SDS011;1311;47.966;7.958;2023-06-10T11:15:22;9.33;;;8.53;;
2602;SDS011;1311;47.966;7.958;2023-06-10T11:20:57;10.00;;;9.20;;
2602;SDS011;1311;47.966;7.958;2023-06-10T11:23:37;10.10;;;9.20;;
2602;SDS011;1311;47.966;7.958;2023-06-10T11:26:15;12.43;;;9.20;;
2602;SDS011;1311;47.966;7.958;2023-06-10T11:29:08;9.43;;;8.73;;
2602;SDS011;1311;47.966;7.958;2023-06-10T11:31:40;10.80;;;10.00;;
2602;SDS011;1311;47.966;7.958;2023-06-10T11:34:10;10.00;;;9.30;;
2602;SDS011;1311;47.966;7.958;2023-06-10T11:36:38;9.73;;;8.83;;
2602;SDS011;1311;47.966;7.958;2023-06-10T11:39:07;10.13;;;9.33;;
2602;SDS011;1311;47.966;7.958;2023-06-10T11:41:35;9.93;;;8.90;;
2602;SDS011;1311;47.966;7.958;2023-06-10T11:44:04;9.90;;;8.90;;
2602;SDS011;1311;47.966;7.958;2023-06-10T11:46:33;9.80;;;9.00;;
2602;SDS011;1311;47.966;7.958;2023-06-10T11:49:00;9.80;;;8.90;;
2602;SDS011;1311;47.966;7.958;2023-06-10T11:51:31;9.10;;;8.40;;
2602;SDS011;1311;47.966;7.958;2023-06-10T11:54:00;10.47;;;9.67;;
2602;SDS011;1311;47.966;7.958;2023-06-10T11:56:27;8.03;;;7.33;;
2602;SDS011;1311;47.966;7.958;2023-06-10T11:58:56;9.07;;;8.40;;
2602;SDS011;1311;47.966;7.958;2023-06-10T12:01:25;9.20;;;8.40;;
2602;SDS011;1311;47.966;7.958;2023-06-10T12:03:59;9.10;;;8.40;;
2602;SDS011;1311;47.966;7.958;2023-06-10T12:06:27;9.17;;;8.47;;
2602;SDS011;1311;47.966;7.958;2023-06-10T12:09:05;8.47;;;7.77;;
2602;SDS011;1311;47.966;7.958;2023-06-10T12:11:32;9.20;;;8.30;;
2602;SDS011;1311;47.966;7.958;2023-06-10T12:13:59;8.77;;;8.07;;
2602;SDS011;1311;47.966;7.958;2023-06-10T12:16:25;8.40;;;7.70;;
2602;SDS011;1311;47.966;7.958;2023-06-10T12:19:00;8.53;;;7.83;;
2602;SDS011;1311;47.966;7.958;2023-06-10T12:21:28;9.10;;;8.37;;
2602;SDS011;1311;47.966;7.958;2023-06-10T12:24:01;9.47;;;8.67;;
2602;SDS011;1311;47.966;7.958;2023-06-10T12:26:36;9.20;;;8.30;;
2602;SDS011;1311;47.966;7.958;2023-06-10T12:29:12;9.20;;;8.40;;
2602;SDS011;1311;47.966;7.958;2023-06-10T12:31:52;8.10;;;7.50;;
2602;SDS011;1311;47.966;7.958;2023-06-10T12:34:30;8.73;;;8.07;;
2602;SDS011;1311;47.966;7.958;2023-06-10T12:36:59;10.27;;;9.13;;
2602;SDS011;1311;47.966;7.958;2023-06-10T12:39:27;8.40;;;7.70;;
2602;SDS011;1311;47.966;7.958;2023-06-10T12:41:54;9.10;;;8.30;;
2602;SDS011;1311;47.966;7.958;2023-06-10T12:44:33;8.40;;;7.80;;
2602;SDS011;1311;47.966;7.958;2023-06-10T12:47:06;8.83;;;8.03;;
2602;SDS011;1311;47.966;7.958;2023-06-10T12:49:34;8.73;;;8.13;;
2602;SDS011;1311;47.966;7.958;2023-06-10T12:52:01;9.50;;;8.80;;
2602;SDS011;1311;47.966;7.958;2023-06-10T12:54:30;8.87;;;8.07;;
2602;SDS011;1311;47.966;7.958;2023-06-10T12:56:57;7.90;;;7.30;;
2602;SDS011;1311;47.966;7.958;2023-06-10T12:59:23;8.00;;;7.40;;
2602;SDS011;1311;47.966;7.958;2023-06-10T13:01:51;9.00;;;8.23;;
2602;SDS011;1311;47.966;7.958;2023-06-10T13:04:17;7.23;;;6.73;;
2602;SDS011;1311;47.966;7.958;2023-06-10T13:06:44;8.40;;;7.80;;
2602;SDS011;1311;47.966;7.958;2023-06-10T13:09:12;8.93;;;8.23;;
2602;SDS011;1311;47.966;7.958;2023-06-10T13:11:40;8.80;;;8.00;;
2602;SDS011;1311;47.966;7.958;2023-06-10T13:14:07;8.40;;;7.80;;
2602;SDS011;1311;47.966;7.958;2023-06-10T13:16:35;8.10;;;7.37;;
2602;SDS011;1311;47.966;7.958;2023-06-10T13:19:04;8.57;;;7.87;;
2602;SDS011;1311;47.966;7.958;2023-06-10T13:21:31;8.30;;;7.60;;
2602;SDS011;1311;47.966;7.958;2023-06-10T13:23:58;8.40;;;7.80;;
2602;SDS011;1311;47.966;7.958;2023-06-10T13:26:25;8.63;;;7.83;;
2602;SDS011;1311;47.966;7.958;2023-06-10T13:28:53;8.77;;;8.07;;
2602;SDS011;1311;47.966;7.958;2023-06-10T13:31:20;7.67;;;6.97;;
2602;SDS011;1311;47.966;7.958;2023-06-10T13:33:47;8.17;;;7.57;;
2602;SDS011;1311;47.966;7.958;2023-06-10T13:36:14;7.80;;;7.30;;
2602;SDS011;1311;47.966;7.958;2023-06-10T13:38:40;8.60;;;7.90;;
2602;SDS011;1311;47.966;7.958;2023-06-10T13:41:07;7.97;;;7.40;;
2602;SDS011;1311;47.966;7.958;2023-06-10T13:43:35;9.03;;;7.90;;
2602;SDS011;1311;47.966;7.958;2023-06-10T13:46:03;8.90;;;8.30;;
2602;SDS011;1311;47.966;7.958;2023-06-10T13:48:29;8.80;;;8.10;;
2602;SDS011;1311;47.966;7.958;2023-06-10T13:50:56;7.27;;;6.77;;
2602;SDS011;1311;47.966;7.958;2023-06-10T13:53:24;8.20;;;7.50;;
2602;SDS011;1311;47.966;7.958;2023-06-10T13:55:51;8.43;;;7.07;;
2602;SDS011;1311;47.966;7.958;2023-06-10T13:58:18;7.43;;;6.77;;
2602;SDS011;1311;47.966;7.958;2023-06-10T14:00:44;7.03;;;6.53;;
2602;SDS011;1311;47.966;7.958;2023-06-10T14:03:13;7.33;;;6.83;;
2602;SDS011;1311;47.966;7.958;2023-06-10T14:05:40;7.43;;;6.73;;
2602;SDS011;1311;47.966;7.958;2023-06-10T14:08:07;7.60;;;7.03;;
2602;SDS011;1311;47.966;7.958;2023-06-10T14:10:33;7.53;;;7.00;;
2602;SDS011;1311;47.966;7.958;2023-06-10T14:13:00;7.53;;;6.90;;
2602;SDS011;1311;47.966;7.958;2023-06-10T14:15:27;7.40;;;6.90;;
2602;SDS011;1311;47.966;7.958;2023-06-10T14:17:54;7.87;;;7.30;;
2602;SDS011;1311;47.966;7.958;2023-06-10T14:20:22;7.57;;;6.97;;
2602;SDS011;1311;47.966;7.958;2023-06-10T14:22:50;6.83;;;6.23;;
2602;SDS011;1311;47.966;7.958;2023-06-10T14:25:17;7.57;;;7.07;;
2602;SDS011;1311;47.966;7.958;2023-06-10T14:27:43;7.27;;;6.77;;
2602;SDS011;1311;47.966;7.958;2023-06-10T14:30:12;7.63;;;7.07;;
2602;SDS011;1311;47.966;7.958;2023-06-10T14:32:39;7.23;;;6.63;;
2602;SDS011;1311;47.966;7.958;2023-06-10T14:35:06;7.90;;;7.30;;
2602;SDS011;1311;47.966;7.958;2023-06-10T14:37:34;7.20;;;6.70;;
2602;SDS011;1311;47.966;7.958;2023-06-10T14:40:01;6.80;;;6.30;;
2602;SDS011;1311;47.966;7.958;2023-06-10T14:42:28;7.23;;;6.63;;
2602;SDS011;1311;47.966;7.958;2023-06-10T14:44:55;6.80;;;6.30;;
2602;SDS011;1311;47.966;7.958;2023-06-10T14:47:22;7.20;;;6.53;;
2602;SDS011;1311;47.966;7.958;2023-06-10T14:49:48;7.20;;;6.70;;
2602;SDS011;1311;47.966;7.958;2023-06-10T14:52:15;7.00;;;6.50;;
2602;SDS011;1311;47.966;7.958;2023-06-10T14:54:43;7.77;;;7.17;;
2602;SDS011;1311;47.966;7.958;2023-06-10T14:57:10;7.57;;;6.97;;
2602;SDS011;1311;47.966;7.958;2023-06-10T14:59:37;7.17;;;6.57;;
2602;SDS011;1311;47.966;7.958;2023-06-10T15:02:03;6.03;;;5.63;;
2602;SDS011;1311;47.966;7.958;2023-06-10T15:04:31;7.60;;;7.00;;
2602;SDS011;1311;47.966;7.958;2023-06-10T15:06:58;7.43;;;6.83;;
2602;SDS011;1311;47.966;7.958;2023-06-10T15:09:25;6.40;;;5.80;;
2602;SDS011;1311;47.966;7.958;2023-06-10T15:11:53;6.27;;;5.80;;
2602;SDS011;1311;47.966;7.958;2023-06-10T15:14:20;6.20;;;5.73;;
2602;SDS011;1311;47.966;7.958;2023-06-10T15:16:47;5.50;;;5.10;;
2602;SDS011;1311;47.966;7.958;2023-06-10T15:19:13;5.37;;;4.97;;
2602;SDS011;1311;47.966;7.958;2023-06-10T15:21:40;5.90;;;5.47;;